Delta Virtual Airport Information Service

Little Rock Clinton National Airport

ICAO: KLIT Country: United States
Latitude: 34.7294 Longitude: -92.2243
Latest Arrival : DAC7112 (KBNA-KLIT) Latest Departure : DAC7112 (KLIT-KMSY)


WX CaptureLIVE
Data provided by noaa.gov | Fetched at 14:25:25

METAR : KLIT 151853Z VRB05KT 10SM FEW055 BKN250 34/21 A2994 RMK AO2 SLP139 T03440211

TAF : KLIT 151730Z 1518/1618 VRB03KT P6SM SCT050 FM160000 14003KT P6SM SCT250


Runway Data for KLIT
Data provided by openaviationdata.com

Runway ID Mag Var Hdg Length Elevation Surface ILS Freq ILS Id ILS Slope
04L 2 44° 8274 ft 262 ft Concrete 110.3 ILIT 3
04R 2 44° 7201 ft 262 ft Concrete 111.3 ICNL 3
18 2 179° 5133 ft 262 ft Asphalt -- -- --
22L 2 224° 7201 ft 262 ft Concrete 110.7 IBWY 3
22R 2 224° 8274 ft 262 ft Concrete 110.3 IAAY 3
36 2 359° 5133 ft 262 ft Asphalt -- -- --

Little Rock Clinton National Airport, United States
Use only for reference purposes



Not for navigational purposes.